Time;durP1;ratioP1;P1;durP2;ratioP2;P2;SDS_P1;SDS_P2;PMS_P1;PMS_P2;Temp;Humidity;BMP_temperature;BMP_pressure;BME280_temperature;BME280_humidity;BME280_pressure;Samples;Min_cycle;Max_cycle;Signal;HPM_P1;HPM_P2
2022/12/25 00:00:00;;;;;;;9.09;8.41;;;;;;;4.50;70.37;101018.52;439182;121;922931;-82
2022/12/25 00:01:15;;;;;;;9.44;8.73;;;;;;;4.50;70.42;101014.98;438962;121;922962;-79
2022/12/25 00:02:18;;;;;;;9.98;9.28;;;;;;;4.51;70.42;101022.07;439289;119;922592;-82
2022/12/25 00:03:22;;;;;;;9.03;8.40;;;;;;;4.50;70.33;101007.72;441387;120;922992;-82
2022/12/25 00:04:25;;;;;;;10.26;9.48;;;;;;;4.50;70.37;101010.42;441365;118;922662;-82
2022/12/25 00:05:28;;;;;;;9.09;8.46;;;;;;;4.51;70.49;101009.42;441330;120;922864;-82
2022/12/25 00:06:32;;;;;;;8.85;8.21;;;;;;;4.51;70.37;101006.72;441438;120;922505;-82
2022/12/25 00:07:35;;;;;;;8.81;8.22;;;;;;;4.52;70.41;101013.78;441079;119;922487;-81
2022/12/25 00:08:39;;;;;;;9.54;8.84;;;;;;;4.53;70.43;101011.92;441467;120;922514;-81
2022/12/25 00:09:42;;;;;;;9.46;8.75;;;;;;;4.53;70.49;101015.48;441262;120;923675;-81
2022/12/25 00:10:45;;;;;;;8.94;8.34;;;;;;;4.51;70.37;101006.72;441406;120;930565;-82
2022/12/25 00:11:48;;;;;;;8.87;8.21;;;;;;;4.52;70.46;101004.86;441443;120;922467;-81
2022/12/25 00:12:52;;;;;;;9.08;8.38;;;;;;;4.51;70.47;101005.87;439383;119;922727;-81
2022/12/25 00:13:55;;;;;;;8.88;8.21;;;;;;;4.52;70.41;101004.86;439125;121;922573;-83
2022/12/25 00:14:58;;;;;;;9.59;8.85;;;;;;;4.51;70.37;101004.02;439082;121;922652;-80
2022/12/25 00:16:11;;;;;;;9.08;8.43;;;;;;;4.51;70.45;101006.72;439028;121;930501;-82
2022/12/25 00:17:14;;;;;;;9.27;8.57;;;;;;;4.52;70.48;101007.56;439303;119;922555;-82
2022/12/25 00:18:17;;;;;;;9.84;9.06;;;;;;;4.53;70.62;101006.53;441419;120;922859;-82
2022/12/25 00:19:20;;;;;;;10.18;9.41;;;;;;;4.54;70.58;101002.83;441396;120;922863;-81
2022/12/25 00:20:23;;;;;;;9.64;8.81;;;;;;;4.55;70.59;101002.67;441687;120;922522;-81
2022/12/25 00:21:27;;;;;;;9.28;8.62;;;;;;;4.56;70.61;101001.66;442357;119;922003;-81
2022/12/25 00:22:30;;;;;;;9.51;8.84;;;;;;;4.58;70.72;101004.17;445459;118;922155;-81
2022/12/25 00:23:34;;;;;;;9.50;8.81;;;;;;;4.59;70.74;101004.02;443228;120;922230;-79
2022/12/25 00:24:37;;;;;;;9.17;8.47;;;;;;;4.63;70.87;101009.11;435499;122;922676;-82
2022/12/25 00:25:40;;;;;;;8.59;7.99;;;;;;;4.65;70.68;101007.06;443229;120;930159;-80
2022/12/25 00:26:44;;;;;;;8.68;8.08;;;;;;;4.66;70.77;101008.76;443164;120;922351;-83
2022/12/25 00:27:47;;;;;;;8.60;7.88;;;;;;;4.66;70.61;100997.95;442526;118;922722;-82
2022/12/25 00:28:55;;;;;;;8.39;7.79;;;;;;;4.66;70.63;101003.36;442305;120;922365;-82
2022/12/25 00:29:58;;;;;;;9.01;8.41;;;;;;;4.67;70.62;101002.35;440600;118;922533;-82
2022/12/25 00:31:12;;;;;;;9.22;8.60;;;;;;;4.68;70.75;101004.05;457413;116;922799;-83
2022/12/25 00:32:15;;;;;;;9.24;8.54;;;;;;;4.70;70.72;101002.00;457146;115;923415;-83
2022/12/25 00:33:19;;;;;;;8.59;8.00;;;;;;;4.70;70.67;100999.30;457503;116;922476;-83
2022/12/25 00:34:22;;;;;;;7.99;7.41;;;;;;;4.69;70.63;100998.45;457519;116;922605;-82
2022/12/25 00:35:25;;;;;;;7.83;7.29;;;;;;;4.70;70.49;100999.30;457533;114;922567;-84
2022/12/25 00:36:28;;;;;;;8.69;8.05;;;;;;;4.69;70.61;101000.31;457492;115;922389;-81
2022/12/25 00:37:31;;;;;;;8.80;8.20;;;;;;;4.69;70.61;100998.45;457446;116;922518;-81
2022/12/25 00:38:37;;;;;;;8.66;8.04;;;;;;;4.70;70.59;100993.91;457547;116;922111;-82
2022/12/25 00:39:41;;;;;;;8.20;7.62;;;;;;;4.72;70.74;100991.89;457545;114;922377;-81
2022/12/25 00:40:44;;;;;;;8.14;7.56;;;;;;;4.74;70.79;100987.99;457831;116;922215;-82
2022/12/25 00:43:09;;;;;;;9.47;8.82;;;;;;;4.79;70.79;100993.77;449676;118;922510;-83
2022/12/25 00:44:12;;;;;;;10.47;9.69;;;;;;;4.81;70.72;100989.02;449826;118;922432;-83
2022/12/25 00:45:16;;;;;;;9.46;8.76;;;;;;;4.82;70.66;100987.16;449764;118;922619;-81
2022/12/25 00:46:19;;;;;;;10.78;10.00;;;;;;;4.81;70.48;100983.62;449756;118;930459;-83
2022/12/25 00:47:23;;;;;;;11.83;10.93;;;;;;;4.79;70.50;100977.56;452252;116;922647;-81
2022/12/25 00:48:27;;;;;;;10.62;9.89;;;;;;;4.81;70.46;100990.88;457653;116;923800;-80
2022/12/25 00:49:30;;;;;;;9.11;8.44;;;;;;;4.83;70.48;100986.16;457543;116;922570;-83
2022/12/25 00:50:33;;;;;;;9.79;9.09;;;;;;;4.84;70.52;100985.16;457580;116;922622;-81
2022/12/25 00:51:36;;;;;;;9.18;8.48;;;;;;;4.86;70.52;100991.22;457632;116;922887;-81
2022/12/25 00:52:39;;;;;;;9.65;8.93;;;;;;;4.87;70.55;100991.05;457700;114;922752;-82
2022/12/25 00:53:43;;;;;;;9.82;9.08;;;;;;;4.88;70.47;100987.34;457718;116;922555;-82
2022/12/25 00:54:46;;;;;;;10.32;9.62;;;;;;;4.88;70.42;100987.34;457626;116;922470;-81
2022/12/25 00:55:57;;;;;;;9.80;9.10;;;;;;;4.88;70.35;100992.75;457630;116;922484;-82
2022/12/25 00:57:01;;;;;;;9.95;9.18;;;;;;;4.87;70.29;100995.61;457418;116;922557;-82
2022/12/25 00:58:04;;;;;;;8.89;8.25;;;;;;;4.87;70.24;100995.61;457532;116;922554;-82
2022/12/25 00:59:07;;;;;;;9.27;8.57;;;;;;;4.84;70.21;100986.00;457709;116;922443;-82
2022/12/25 01:00:13;;;;;;;10.02;9.32;;;;;;;4.84;70.17;100995.96;457435;116;923180;-82
2022/12/25 01:01:16;;;;;;;9.61;8.91;;;;;;;4.84;70.20;100995.96;457403;116;930364;-82
2022/12/25 01:02:22;;;;;;;9.39;8.69;;;;;;;4.82;70.26;100993.42;457529;115;922563;-82
2022/12/25 01:03:26;;;;;;;8.87;8.27;;;;;;;4.81;70.13;100985.47;457293;116;930512;-81
2022/12/25 01:04:29;;;;;;;9.76;9.07;;;;;;;4.82;70.14;100992.57;457451;116;922577;-82
2022/12/25 01:05:32;;;;;;;10.65;9.86;;;;;;;4.82;70.31;100995.27;457435;114;930510;-81
2022/12/25 01:06:36;;;;;;;10.43;9.63;;;;;;;4.83;70.17;100994.27;457509;116;922567;-81
2022/12/25 01:07:39;;;;;;;12.72;11.81;;;;;;;4.83;70.16;100996.97;457405;115;922697;-82
2022/12/25 01:10:21;;;;;;;11.48;10.64;;;;;;;4.83;70.25;100994.27;457556;116;922561;-82
2022/12/25 01:11:09;;;;;;;11.53;10.72;;;;;;;4.83;70.19;100994.27;452150;117;922634;-81
2022/12/25 01:12:13;;;;;;;11.09;10.29;;;;;;;4.81;70.15;100996.28;452218;115;922568;-81
2022/12/25 01:13:16;;;;;;;10.69;9.79;;;;;;;4.80;70.04;100995.43;456444;116;922943;-84
2022/12/25 01:14:19;;;;;;;9.35;8.65;;;;;;;4.79;70.12;100998.32;457523;116;922643;-82
2022/12/25 01:15:22;;;;;;;9.44;8.72;;;;;;;4.78;69.99;100985.83;457521;116;922913;-82
2022/12/25 01:16:26;;;;;;;9.43;8.74;;;;;;;4.76;70.00;100990.53;457570;115;922529;-83
2022/12/25 01:17:29;;;;;;;9.59;8.89;;;;;;;4.76;69.98;100995.94;457529;114;922470;-82
2022/12/25 01:18:33;;;;;;;8.63;8.00;;;;;;;4.74;69.98;100990.69;457569;116;922531;-81
2022/12/25 01:19:36;;;;;;;9.21;8.55;;;;;;;4.73;70.01;100988.18;457466;116;922925;-82
2022/12/25 01:20:39;;;;;;;9.16;8.56;;;;;;;4.71;70.10;100998.30;457551;115;922517;-81
2022/12/25 01:21:42;;;;;;;9.23;8.61;;;;;;;4.70;70.07;100993.91;457548;116;922560;-83
2022/12/25 01:22:45;;;;;;;9.74;9.04;;;;;;;4.68;69.97;100987.84;457583;115;922963;-80
2022/12/25 01:23:50;;;;;;;9.71;8.92;;;;;;;4.68;70.07;100985.14;457578;116;922599;-81
2022/12/25 01:24:53;;;;;;;9.68;8.98;;;;;;;4.66;70.08;100987.15;457337;114;922461;-83
2022/12/25 01:25:58;;;;;;;9.28;8.59;;;;;;;4.64;70.08;100990.01;457537;116;922649;-82
2022/12/25 01:27:01;;;;;;;10.52;9.74;;;;;;;4.63;70.07;100988.34;457080;115;922855;-83
2022/12/25 01:28:04;;;;;;;9.97;9.27;;;;;;;4.61;70.10;100991.20;457346;115;922535;-82
2022/12/25 01:29:08;;;;;;;10.04;9.34;;;;;;;4.61;70.03;100993.91;457625;115;922563;-81
2022/12/25 01:30:11;;;;;;;9.19;8.49;;;;;;;4.61;70.13;100993.91;457418;114;922552;-82
2022/12/25 01:31:17;;;;;;;9.54;8.84;;;;;;;4.59;70.12;100995.06;457389;116;930515;-82
2022/12/25 01:32:20;;;;;;;9.33;8.76;;;;;;;4.59;70.13;100995.91;457129;115;922559;-82
2022/12/25 01:33:23;;;;;;;9.96;9.26;;;;;;;4.56;70.11;100992.71;457530;115;922648;-81
2022/12/25 01:34:27;;;;;;;9.50;8.84;;;;;;;4.56;70.17;100992.71;457461;116;923040;-82
2022/12/25 01:35:30;;;;;;;8.97;8.31;;;;;;;4.54;70.12;100992.87;457535;116;922954;-83
2022/12/25 01:36:33;;;;;;;9.29;8.69;;;;;;;4.54;70.26;100992.87;457524;116;922615;-81
2022/12/25 01:37:36;;;;;;;9.24;8.58;;;;;;;4.54;70.23;100992.87;457225;115;922450;-83
2022/12/25 01:38:39;;;;;;;9.21;8.51;;;;;;;4.53;70.31;100996.58;457550;116;922555;-82
2022/12/25 01:39:43;;;;;;;9.19;8.48;;;;;;;4.53;70.24;101001.98;457426;116;922828;-82
2022/12/25 01:40:46;;;;;;;8.88;8.26;;;;;;;4.51;70.31;100998.61;458142;114;922435;-80
2022/12/25 01:41:49;;;;;;;9.98;9.26;;;;;;;4.50;70.24;100999.63;458831;111;922034;-81
2022/12/25 01:42:52;;;;;;;9.93;9.24;;;;;;;4.49;70.35;100997.92;458846;113;922450;-79
2022/12/25 01:44:05;;;;;;;9.61;8.93;;;;;;;4.48;70.38;100993.53;458846;113;922448;-80
2022/12/25 01:45:28;;;;;;;9.87;9.16;;;;;;;4.47;70.41;100993.69;456337;111;922232;-80
2022/12/25 01:46:32;;;;;;;9.34;8.65;;;;;;;4.46;70.44;100994.72;458691;114;922038;-81
2022/12/25 01:47:35;;;;;;;9.98;9.22;;;;;;;4.44;70.48;101000.28;458802;114;922207;-79
2022/12/25 01:48:38;;;;;;;9.26;8.56;;;;;;;4.44;70.42;100999.43;458840;116;922305;-81
2022/12/25 01:49:45;;;;;;;9.33;8.69;;;;;;;4.42;70.58;100993.34;458768;114;922101;-81
2022/12/25 01:50:52;;;;;;;9.74;9.04;;;;;;;4.42;70.51;100996.89;458663;114;922461;-80
2022/12/25 01:52:01;;;;;;;10.41;9.53;;;;;;;4.41;70.63;100995.19;458609;113;922013;-82
2022/12/25 01:53:05;;;;;;;9.65;8.94;;;;;;;4.41;70.64;100995.19;458547;112;922239;-79
2022/12/25 01:54:13;;;;;;;9.45;8.76;;;;;;;4.41;70.64;100995.19;458665;115;922259;-80
2022/12/25 01:55:16;;;;;;;9.75;9.06;;;;;;;4.41;70.63;101000.59;458585;114;922663;-81
2022/12/25 01:56:19;;;;;;;8.98;8.30;;;;;;;4.41;70.80;100999.77;450117;116;921982;-79
2022/12/25 01:57:26;;;;;;;9.19;8.49;;;;;;;4.42;70.90;100994.19;458838;114;930262;-80
2022/12/25 01:58:30;;;;;;;10.47;9.70;;;;;;;4.45;70.98;100995.73;458602;116;922525;-80
2022/12/25 01:59:33;;;;;;;9.28;8.59;;;;;;;4.47;71.00;100996.39;458764;114;922063;-80
2022/12/25 02:00:36;;;;;;;9.59;8.88;;;;;;;4.48;70.96;100998.93;458632;113;930016;-80
2022/12/25 02:01:39;;;;;;;10.05;9.25;;;;;;;4.48;71.01;101001.62;458840;114;922064;-81
2022/12/25 02:02:44;;;;;;;10.08;9.32;;;;;;;4.50;71.04;100996.92;458656;114;921989;-81
2022/12/25 02:03:47;;;;;;;9.99;9.29;;;;;;;4.52;70.98;100996.77;458082;115;922875;-81
2022/12/25 02:05:12;;;;;;;9.04;8.34;;;;;;;4.53;71.07;100998.42;458269;116;922428;-81
2022/12/25 02:06:15;;;;;;;10.10;9.20;;;;;;;4.54;71.06;100994.72;457714;115;922856;-82
2022/12/25 02:07:22;;;;;;;10.14;9.39;;;;;;;4.56;70.96;101000.81;457529;115;922856;-82
2022/12/25 02:08:25;;;;;;;10.46;9.66;;;;;;;4.57;71.11;101002.51;457522;116;922497;-82
2022/12/25 02:09:28;;;;;;;10.66;9.71;;;;;;;4.59;71.07;101000.47;457607;116;922435;-81
2022/12/25 02:10:32;;;;;;;9.24;8.56;;;;;;;4.61;71.06;100999.30;457559;115;922394;-81
2022/12/25 02:12:57;;;;;;;9.38;8.67;;;;;;;4.65;71.08;100996.26;457532;115;922363;-83
2022/12/25 02:14:00;;;;;;;9.98;9.29;;;;;;;4.66;71.03;100998.80;457563;115;922475;-81
2022/12/25 02:15:13;;;;;;;9.44;8.75;;;;;;;4.66;70.90;100992.55;457575;114;922917;-81
2022/12/25 02:16:19;;;;;;;9.81;9.01;;;;;;;4.66;70.89;100995.25;457401;116;930394;-81
2022/12/25 02:17:32;;;;;;;9.53;8.80;;;;;;;4.66;70.97;101000.66;457172;114;923110;-81
2022/12/25 02:18:45;;;;;;;9.65;8.94;;;;;;;4.65;70.89;101001.66;457489;116;922937;-82
2022/12/25 02:20:09;;;;;;;9.44;8.74;;;;;;;4.64;70.87;100992.70;457377;114;922932;-82
2022/12/25 02:21:37;;;;;;;9.49;8.79;;;;;;;4.63;70.88;100999.15;457434;116;922741;-81
2022/12/25 02:23:02;;;;;;;9.83;9.09;;;;;;;4.61;70.78;100999.30;457356;116;922701;-82
2022/12/25 02:24:37;;;;;;;9.64;9.02;;;;;;;4.60;70.80;100994.91;457379;116;922965;-81
2022/12/25 02:25:56;;;;;;;10.41;9.61;;;;;;;4.59;70.84;100997.77;457280;114;923184;-83
2022/12/25 02:27:25;;;;;;;9.94;9.22;;;;;;;4.57;71.00;100989.86;457311;115;922923;-81
2022/12/25 02:28:51;;;;;;;10.74;9.97;;;;;;;4.55;70.94;100991.87;448808;117;922899;-82
2022/12/25 02:30:09;;;;;;;11.23;10.39;;;;;;;4.51;70.90;100993.22;449402;117;922723;-81
2022/12/25 02:31:15;;;;;;;10.08;9.31;;;;;;;4.49;70.89;100987.13;449465;118;922448;-80
2022/12/25 02:32:25;;;;;;;10.51;9.67;;;;;;;4.46;70.85;100986.63;452160;114;922850;-81
2022/12/25 02:35:00;;;;;;;10.89;10.07;;;;;;;4.42;70.93;101004.14;461049;115;922705;-82
2022/12/25 02:36:07;;;;;;;10.04;9.34;;;;;;;4.38;70.81;101003.63;461113;115;922545;-82
2022/12/25 02:37:19;;;;;;;10.59;9.81;;;;;;;4.36;70.95;100999.39;460585;115;922542;-82
2022/12/25 02:38:28;;;;;;;9.78;8.98;;;;;;;4.35;70.99;101009.38;457278;116;922456;-81
2022/12/25 02:39:56;;;;;;;8.79;8.14;;;;;;;4.35;71.09;100998.58;457112;115;922607;-83
2022/12/25 02:41:03;;;;;;;9.42;8.73;;;;;;;4.36;71.24;101008.34;457325;116;922502;-82
2022/12/25 02:42:10;;;;;;;9.68;8.96;;;;;;;4.38;71.25;101006.33;457233;115;922553;-83
2022/12/25 03:07:15;;;;;;;10.12;9.32;;;;;;;4.30;71.67;101022.48;457166;114;922461;-81
2022/12/25 03:08:25;;;;;;;10.59;9.81;;;;;;;4.31;71.69;101018.79;457270;115;922560;-80
2022/12/25 03:12:50;;;;;;;10.68;9.88;;;;;;;4.34;71.47;101031.98;454550;114;922602;-82
2022/12/25 03:16:49;;;;;;;10.69;9.89;;;;;;;4.33;71.43;101029.43;448393;118;922430;-82
2022/12/25 03:17:51;;;;;;;10.39;9.61;;;;;;;4.35;71.68;101038.22;455654;114;922588;-82
2022/12/25 03:18:57;;;;;;;10.18;9.48;;;;;;;4.38;71.75;101044.13;457497;116;922487;-82
2022/12/25 03:26:56;;;;;;;11.39;10.49;;;;;;;4.44;71.42;101040.78;457444;116;922441;-82
2022/12/25 03:27:59;;;;;;;11.14;10.27;;;;;;;4.44;71.44;101043.48;457658;115;922598;-82
2022/12/25 03:29:03;;;;;;;12.54;11.64;;;;;;;4.46;71.54;101041.47;457532;116;922483;-83
2022/12/25 03:31:44;;;;;;;11.07;10.17;;;;;;;4.50;71.60;101041.97;457437;115;930328;-83
2022/12/25 03:33:04;;;;;;;11.29;10.39;;;;;;;4.53;71.48;101044.33;457581;114;922550;-82
2022/12/25 03:36:08;;;;;;;10.74;9.92;;;;;;;4.52;71.29;101040.78;457409;116;923016;-81
2022/12/25 03:39:11;;;;;;;10.98;10.15;;;;;;;4.48;71.21;101036.73;457382;116;922874;-81
2022/12/25 04:36:11;;;;;;;11.49;10.39;;;;;;;4.41;71.51;101064.57;449588;118;922435;-82
2022/12/25 04:37:14;;;;;;;10.94;10.04;;;;;;;4.44;71.64;101069.62;450515;114;922489;-83
2022/12/25 04:38:19;;;;;;;10.56;9.79;;;;;;;4.44;71.55;101065.08;453946;117;922942;-83
2022/12/25 04:39:22;;;;;;;11.81;10.94;;;;;;;4.46;71.65;101070.33;453750;117;922730;-83
2022/12/25 04:40:26;;;;;;;10.31;9.58;;;;;;;4.46;71.50;101063.07;453845;114;922594;-83
2022/12/25 04:41:29;;;;;;;11.22;10.45;;;;;;;4.48;71.49;101061.03;453929;117;930490;-81
2022/12/25 04:42:32;;;;;;;10.30;9.54;;;;;;;4.49;71.44;101057.33;455496;114;922891;-82
2022/12/25 04:43:35;;;;;;;10.81;10.01;;;;;;;4.52;71.39;101056.17;457591;116;922482;-83
2022/12/25 04:44:39;;;;;;;11.53;10.64;;;;;;;4.54;71.35;101062.23;457634;115;922839;-83
2022/12/25 04:45:42;;;;;;;12.11;11.15;;;;;;;4.55;71.34;101067.48;457689;114;922490;-83
2022/12/25 04:46:45;;;;;;;12.13;11.20;;;;;;;4.56;71.28;101061.07;457617;116;922640;-82
2022/12/25 04:47:49;;;;;;;10.66;9.88;;;;;;;4.58;71.28;101060.89;454245;116;922706;-82
2022/12/25 04:48:52;;;;;;;10.78;9.96;;;;;;;4.59;71.26;101060.73;452607;117;930150;-82
2022/12/25 04:49:55;;;;;;;11.24;10.34;;;;;;;4.60;71.25;101066.98;452664;115;922492;-82
2022/12/25 04:51:11;;;;;;;11.40;10.46;;;;;;;4.61;71.12;101058.72;452682;117;922528;-81
2022/12/25 04:52:14;;;;;;;11.55;10.58;;;;;;;4.61;71.10;101069.52;452667;115;922594;-80
2022/12/25 04:53:18;;;;;;;11.01;10.16;;;;;;;4.62;71.16;101059.57;452694;117;922957;-82
2022/12/25 04:54:22;;;;;;;11.69;10.74;;;;;;;4.63;71.02;101064.78;452577;117;922424;-80
2022/12/25 04:55:25;;;;;;;12.07;11.18;;;;;;;4.64;71.02;101065.62;457085;114;922541;-81
2022/12/25 04:56:28;;;;;;;11.20;10.29;;;;;;;4.65;71.07;101064.63;463702;114;930487;-81
2022/12/25 04:57:32;;;;;;;11.86;10.88;;;;;;;4.65;70.94;101067.33;459013;114;922625;-83
2022/12/25 04:58:36;;;;;;;11.70;10.71;;;;;;;4.66;71.07;101069.02;452495;117;922492;-82
2022/12/25 04:59:39;;;;;;;12.15;11.14;;;;;;;4.67;70.96;101072.58;452492;117;922594;-82
2022/12/25 05:00:42;;;;;;;11.33;10.46;;;;;;;4.68;70.88;101074.27;452599;115;922507;-82
2022/12/25 05:01:45;;;;;;;12.05;11.15;;;;;;;4.68;70.93;101071.57;452618;117;922496;-81
2022/12/25 05:02:48;;;;;;;12.91;11.78;;;;;;;4.69;70.90;101073.23;452824;116;922525;-83
2022/12/25 05:03:52;;;;;;;12.89;11.82;;;;;;;4.69;70.89;101074.08;452645;117;922525;-81
2022/12/25 05:04:55;;;;;;;11.90;10.99;;;;;;;4.70;70.77;101075.78;460317;113;922531;-82
2022/12/25 05:05:59;;;;;;;12.54;11.46;;;;;;;4.70;70.85;101083.88;460068;115;922659;-82
2022/12/25 05:07:02;;;;;;;11.73;10.76;;;;;;;4.72;70.74;101083.73;452512;117;922576;-81
2022/12/25 05:08:06;;;;;;;13.55;12.34;;;;;;;4.73;70.83;101085.42;452778;116;922524;-81
2022/12/25 05:09:09;;;;;;;12.98;11.88;;;;;;;4.72;70.71;101084.58;452490;117;922496;-81
2022/12/25 05:10:13;;;;;;;12.58;11.47;;;;;;;4.74;70.72;101087.94;452477;115;923095;-83
2022/12/25 05:11:16;;;;;;;13.43;11.88;;;;;;;4.76;70.71;101076.98;452589;117;926339;-83
2022/12/25 05:12:19;;;;;;;12.70;11.53;;;;;;;4.76;70.65;101085.08;453563;116;922782;-83
2022/12/25 05:13:23;;;;;;;13.10;12.00;;;;;;;4.76;70.62;101085.08;457540;116;922447;-82
2022/12/25 05:14:26;;;;;;;13.44;12.34;;;;;;;4.74;70.45;101089.83;457509;116;922957;-83
2022/12/25 05:15:29;;;;;;;12.65;11.66;;;;;;;4.72;70.36;101087.28;457588;114;927234;-80
2022/12/25 05:16:32;;;;;;;13.23;12.13;;;;;;;4.72;70.31;101083.73;457605;116;922951;-81
2022/12/25 05:17:36;;;;;;;12.76;11.71;;;;;;;4.70;70.38;101086.58;455106;116;922823;-83
2022/12/25 05:18:39;;;;;;;12.56;11.57;;;;;;;4.69;70.26;101086.73;452495;117;923445;-82
2022/12/25 05:19:42;;;;;;;12.03;11.08;;;;;;;4.68;70.29;101091.33;452568;117;924883;-82
2022/12/25 05:20:53;;;;;;;11.86;10.90;;;;;;;4.67;70.33;101089.62;452552;117;922956;-83
2022/12/25 05:21:57;;;;;;;12.12;11.18;;;;;;;4.67;70.31;101088.78;452414;117;922539;-82
2022/12/25 05:23:00;;;;;;;12.39;11.44;;;;;;;4.67;70.61;101080.67;452834;116;922784;-83
2022/12/25 05:24:03;;;;;;;12.67;11.67;;;;;;;4.67;70.61;101080.67;452567;117;922467;-83
2022/12/25 05:25:07;;;;;;;12.69;11.63;;;;;;;4.67;70.39;101084.23;452552;115;922955;-82
2022/12/25 05:26:10;;;;;;;12.75;11.70;;;;;;;4.68;70.41;101087.78;452499;117;922468;-83
2022/12/25 05:27:14;;;;;;;13.18;11.94;;;;;;;4.69;70.39;101087.59;453349;116;922583;-83
2022/12/25 05:28:17;;;;;;;13.09;11.97;;;;;;;4.70;70.44;101085.73;457494;116;922865;-84
2022/12/25 05:29:20;;;;;;;12.56;11.46;;;;;;;4.70;70.45;101085.73;457469;116;930352;-82
2022/12/25 05:30:23;;;;;;;13.14;11.92;;;;;;;4.71;70.42;101087.44;457583;114;922569;-81
2022/12/25 05:31:27;;;;;;;12.98;11.82;;;;;;;4.72;70.52;101086.43;457569;116;922450;-81
2022/12/25 05:32:30;;;;;;;12.77;11.62;;;;;;;4.72;70.40;101086.43;457394;116;922538;-81
2022/12/25 05:33:33;;;;;;;13.32;12.31;;;;;;;4.72;70.38;101086.43;457599;116;922969;-81
2022/12/25 05:34:36;;;;;;;12.12;11.26;;;;;;;4.72;70.37;101089.12;457583;116;923125;-83
2022/12/25 05:35:40;;;;;;;12.75;11.76;;;;;;;4.72;70.34;101084.58;457615;114;922543;-83
2022/12/25 05:36:43;;;;;;;13.16;11.87;;;;;;;4.74;70.27;101092.52;457609;116;923433;-83
2022/12/25 05:37:46;;;;;;;12.48;11.48;;;;;;;4.71;70.37;101088.28;452474;116;930299;-81
2022/12/25 05:38:50;;;;;;;13.48;12.37;;;;;;;4.72;70.29;101097.23;449726;118;922446;-83
2022/12/25 05:39:53;;;;;;;12.44;11.47;;;;;;;4.72;70.33;101099.94;449723;116;922904;-83
2022/12/25 05:40:56;;;;;;;12.52;11.49;;;;;;;4.73;70.36;101086.27;449830;117;922688;-83
2022/12/25 05:41:59;;;;;;;11.36;10.32;;;;;;;4.74;70.37;101093.34;449818;118;922484;-82
2022/12/25 05:43:03;;;;;;;13.04;12.01;;;;;;;4.76;70.39;101087.78;452882;116;922540;-83
2022/12/25 05:44:06;;;;;;;12.79;11.79;;;;;;;4.75;70.35;101089.63;452528;117;922944;-82
2022/12/25 05:45:10;;;;;;;12.65;11.63;;;;;;;4.76;70.37;101093.19;452581;115;922957;-83
2022/12/25 05:46:14;;;;;;;12.96;11.89;;;;;;;4.76;70.23;101101.29;452438;117;922637;-82
2022/12/25 05:47:17;;;;;;;12.85;11.83;;;;;;;4.76;70.24;101096.73;452927;116;922528;-84
2022/12/25 05:48:20;;;;;;;13.30;12.24;;;;;;;4.76;70.26;101090.48;452527;117;930317;-82
2022/12/25 05:49:23;;;;;;;12.74;11.69;;;;;;;4.75;70.24;101096.89;460462;115;922661;-81
2022/12/25 05:50:26;;;;;;;13.57;12.48;;;;;;;4.76;70.23;101098.59;459943;113;922508;-82
2022/12/25 05:51:32;;;;;;;14.40;13.26;;;;;;;4.76;70.31;101095.89;453379;115;922649;-81
2022/12/25 05:52:35;;;;;;;15.81;14.53;;;;;;;4.76;70.29;101101.29;454790;116;922496;-83
2022/12/25 05:53:39;;;;;;;15.74;14.54;;;;;;;4.77;70.30;101098.43;457640;116;922490;-81
2022/12/25 05:54:43;;;;;;;15.81;14.56;;;;;;;4.78;70.30;101101.98;457448;116;922431;-83
2022/12/25 05:55:46;;;;;;;15.41;14.11;;;;;;;4.78;70.38;101102.83;451709;114;922785;-83
2022/12/25 05:56:49;;;;;;;16.08;14.67;;;;;;;4.80;70.39;101099.94;450351;118;922012;-80
2022/12/25 05:57:52;;;;;;;15.74;14.46;;;;;;;4.80;70.36;101108.89;457087;112;922112;-79
2022/12/25 05:58:55;;;;;;;16.07;14.79;;;;;;;4.80;70.22;101108.89;458952;112;922146;-80
2022/12/25 05:59:59;;;;;;;15.26;14.12;;;;;;;4.80;70.24;101113.45;458840;112;922502;-80
2022/12/25 06:01:02;;;;;;;15.84;14.51;;;;;;;4.80;70.23;101110.75;458938;112;922471;-80
2022/12/25 06:02:06;;;;;;;15.94;14.74;;;;;;;4.80;70.22;101113.45;458674;112;922107;-81
2022/12/25 06:03:09;;;;;;;15.03;13.74;;;;;;;4.80;70.28;101108.89;453361;114;922004;-81
2022/12/25 06:04:12;;;;;;;16.05;14.68;;;;;;;4.80;70.21;101111.59;453340;117;922069;-79
2022/12/25 06:05:15;;;;;;;14.74;13.55;;;;;;;4.80;70.29;101110.75;453298;116;922189;-78
2022/12/25 06:06:20;;;;;;;15.98;14.68;;;;;;;4.80;70.17;101108.89;453318;117;922100;-81
2022/12/25 06:07:23;;;;;;;14.98;13.71;;;;;;;4.80;70.15;101106.19;454006;116;921850;-80
2022/12/25 06:08:26;;;;;;;15.03;13.82;;;;;;;4.82;70.19;101117.69;453714;117;922597;-79
2022/12/25 06:09:29;;;;;;;15.75;14.36;;;;;;;4.81;70.30;101115.14;453865;117;922032;-79
2022/12/25 06:10:32;;;;;;;15.61;14.30;;;;;;;4.83;70.20;101123.94;453792;113;922129;-80
2022/12/25 06:11:35;;;;;;;16.11;14.51;;;;;;;4.84;70.21;101114.84;453852;117;921984;-79
2022/12/25 06:12:38;;;;;;;15.91;14.63;;;;;;;4.83;70.12;101113.98;456463;112;922660;-80
2022/12/25 06:13:42;;;;;;;15.44;14.18;;;;;;;4.83;70.20;101116.69;458906;116;922138;-80
2022/12/25 06:14:45;;;;;;;16.86;15.43;;;;;;;4.84;70.20;101117.53;458868;114;922135;-81
2022/12/25 06:15:48;;;;;;;16.69;15.30;;;;;;;4.84;70.18;101122.94;458813;112;923025;-82
2022/12/25 06:16:52;;;;;;;15.41;14.11;;;;;;;4.84;70.16;101117.53;458932;115;922187;-82
2022/12/25 06:17:55;;;;;;;15.84;14.50;;;;;;;4.85;70.11;101124.64;457898;112;922411;-81
2022/12/25 06:18:59;;;;;;;16.04;14.61;;;;;;;4.84;70.08;101125.64;458347;116;922460;-80
2022/12/25 06:20:02;;;;;;;16.17;14.60;;;;;;;4.83;70.11;101124.80;457844;114;922844;-83
2022/12/25 06:21:08;;;;;;;17.14;14.11;;;;;;;4.85;70.11;101130.04;457776;116;922397;-81
2022/12/25 06:22:11;;;;;;;16.79;15.40;;;;;;;4.87;70.23;101128.00;457051;115;930453;-81
2022/12/25 06:23:14;;;;;;;16.62;15.16;;;;;;;4.88;70.15;101127.00;457818;116;922748;-81
2022/12/25 06:24:18;;;;;;;15.36;13.99;;;;;;;4.90;70.15;101127.69;457676;116;922575;-81
2022/12/25 06:25:22;;;;;;;15.81;14.36;;;;;;;4.91;70.29;101126.66;457469;114;922522;-81
2022/12/25 06:26:26;;;;;;;15.36;14.04;;;;;;;4.92;70.29;101134.60;457774;115;922393;-82
2022/12/25 06:27:29;;;;;;;16.32;14.80;;;;;;;4.94;70.22;101134.45;455956;116;922560;-81
2022/12/25 06:28:32;;;;;;;15.23;13.90;;;;;;;4.96;70.23;101132.44;452720;117;922722;-83
2022/12/25 06:29:36;;;;;;;16.35;14.95;;;;;;;4.98;70.21;101133.95;452741;117;922962;-81
2022/12/25 06:30:39;;;;;;;18.60;17.07;;;;;;;4.99;70.28;101140.20;452640;115;922492;-82
2022/12/25 06:31:42;;;;;;;17.43;16.01;;;;;;;5.01;70.17;101135.48;452722;117;922530;-81
2022/12/25 06:32:45;;;;;;;17.92;16.44;;;;;;;5.01;70.12;101132.78;453137;116;922486;-81
2022/12/25 06:33:48;;;;;;;17.83;16.06;;;;;;;5.02;70.12;101134.45;452690;117;922851;-82
2022/12/25 06:34:52;;;;;;;17.46;16.08;;;;;;;5.02;70.07;101139.85;452576;115;922492;-81
2022/12/25 06:35:55;;;;;;;17.10;15.78;;;;;;;5.04;70.13;101137.84;452556;117;922556;-81
2022/12/25 06:36:59;;;;;;;17.34;15.92;;;;;;;5.04;70.03;101140.55;452561;116;922563;-83
2022/12/25 06:38:02;;;;;;;17.56;16.17;;;;;;;5.04;70.14;101138.69;457138;116;922734;-81
2022/12/25 06:39:05;;;;;;;16.06;14.80;;;;;;;5.07;70.01;101137.53;457573;116;930203;-81
2022/12/25 06:40:09;;;;;;;16.06;14.85;;;;;;;5.07;69.99;101134.83;457457;114;922826;-81
2022/12/25 06:41:15;;;;;;;15.74;14.56;;;;;;;5.07;70.07;101137.53;457466;116;930478;-81
2022/12/25 06:42:18;;;;;;;14.71;13.52;;;;;;;5.10;70.03;101139.03;456912;116;930268;-82